Time;durP1;ratioP1;P1;durP2;ratioP2;P2;SDS_P1;SDS_P2;PMS_P1;PMS_P2;Temp;Humidity;BMP_temperature;BMP_pressure;BME280_temperature;BME280_humidity;BME280_pressure;Samples;Min_cycle;Max_cycle;Signal;HPM_P1;HPM_P2
2023/05/01 00:00:08;;;;;;;9.05;6.20;;;8.90;99.90;;;;;;5026638;28;20423;-77
2023/05/01 00:02:34;;;;;;;7.47;6.20;;;8.80;99.90;;;;;;5024495;28;20502;-77
2023/05/01 00:05:01;;;;;;;7.20;5.95;;;8.80;99.90;;;;;;5042422;28;20434;-77
2023/05/01 00:07:30;;;;;;;10.85;6.60;;;8.80;99.90;;;;;;5027923;28;20930;-77
2023/05/01 00:09:59;;;;;;;9.52;5.63;;;8.80;99.90;;;;;;5028052;28;20434;-79
2023/05/01 00:12:25;;;;;;;9.75;5.97;;;8.70;99.90;;;;;;5028293;28;20851;-77
2023/05/01 00:14:52;;;;;;;8.63;6.20;;;8.80;99.90;;;;;;5021551;28;20434;-76
2023/05/01 00:17:18;;;;;;;8.57;5.80;;;8.70;99.90;;;;;;5024616;28;20544;-77
2023/05/01 00:19:44;;;;;;;8.40;6.43;;;8.70;99.90;;;;;;5020953;28;20420;-78
2023/05/01 00:22:09;;;;;;;10.30;6.60;;;8.70;99.90;;;;;;5008848;28;20412;-78
2023/05/01 00:24:35;;;;;;;8.13;5.50;;;8.70;99.90;;;;;;5024756;28;20498;-78
2023/05/01 00:27:02;;;;;;;12.50;6.85;;;8.80;99.90;;;;;;5028799;28;20435;-77
2023/05/01 00:29:28;;;;;;;9.25;5.80;;;8.70;99.90;;;;;;5028864;28;20415;-77
2023/05/01 00:31:54;;;;;;;10.73;5.65;;;8.70;99.90;;;;;;5029838;28;20488;-76
2023/05/01 00:34:20;;;;;;;6.57;5.60;;;8.60;99.90;;;;;;5026871;28;20427;-75
2023/05/01 00:36:45;;;;;;;9.27;6.40;;;8.70;99.90;;;;;;5019825;28;20424;-77
2023/05/01 00:39:11;;;;;;;9.18;6.57;;;8.70;99.90;;;;;;5027532;28;20842;-75
2023/05/01 00:41:37;;;;;;;8.70;6.47;;;8.70;99.90;;;;;;5029851;28;20915;-76
2023/05/01 00:44:03;;;;;;;9.05;6.07;;;8.60;99.90;;;;;;5018779;28;20765;-76
2023/05/01 00:46:29;;;;;;;8.38;6.43;;;8.60;99.90;;;;;;5027425;28;20432;-77
2023/05/01 00:48:56;;;;;;;7.38;5.95;;;8.60;99.90;;;;;;5024834;28;20860;-77
2023/05/01 00:51:22;;;;;;;11.05;6.38;;;8.60;99.90;;;;;;5024608;28;20733;-76
2023/05/01 00:53:48;;;;;;;7.65;5.93;;;8.70;99.90;;;;;;5025287;28;20437;-76
2023/05/01 00:56:15;;;;;;;10.73;6.88;;;8.60;99.90;;;;;;5027273;28;21017;-77
2023/05/01 00:58:41;;;;;;;9.68;6.30;;;8.50;99.90;;;;;;5024216;28;20573;-77
2023/05/01 01:01:09;;;;;;;8.63;6.50;;;8.50;99.90;;;;;;5024604;28;20882;-77
2023/05/01 01:03:35;;;;;;;9.38;6.13;;;8.60;99.90;;;;;;5021329;28;20526;-75
2023/05/01 01:06:14;;;;;;;8.23;5.43;;;8.60;99.90;;;;;;5025485;28;20998;-76
2023/05/01 01:08:39;;;;;;;8.57;5.68;;;8.40;99.90;;;;;;5101665;23;21539;-75
2023/05/01 01:11:14;;;;;;;9.40;5.77;;;8.40;99.90;;;;;;5062936;28;20437;-78
2023/05/01 01:13:53;;;;;;;9.82;6.32;;;8.50;99.90;;;;;;5066256;28;20416;-79
2023/05/01 01:16:52;;;;;;;8.55;6.20;;;8.50;99.90;;;;;;5064979;28;20428;-78
2023/05/01 01:19:43;;;;;;;9.65;6.40;;;8.40;99.90;;;;;;5021555;28;20436;-78
2023/05/01 01:22:17;;;;;;;8.00;5.95;;;8.40;99.90;;;;;;5067589;28;20897;-77
2023/05/01 01:24:48;;;;;;;10.43;6.07;;;8.40;99.90;;;;;;5073829;28;20410;-77
2023/05/01 01:27:46;;;;;;;8.98;6.45;;;8.40;99.90;;;;;;5085714;28;20426;-77
2023/05/01 01:30:40;;;;;;;9.65;5.65;;;8.30;99.90;;;;;;5049462;28;20477;-79
2023/05/01 01:33:49;;;;;;;9.37;6.00;;;8.30;99.90;;;;;;5065154;28;20944;-75
2023/05/01 01:36:20;;;;;;;9.82;6.07;;;8.30;99.90;;;;;;5066594;28;20779;-76
2023/05/01 01:38:57;;;;;;;12.63;6.28;;;8.20;99.90;;;;;;5067894;28;20783;-76
2023/05/01 01:41:33;;;;;;;9.87;6.17;;;8.20;99.90;;;;;;5068846;28;21010;-77
2023/05/01 01:44:11;;;;;;;8.70;5.60;;;8.10;99.90;;;;;;5073799;28;20431;-77
2023/05/01 01:46:39;;;;;;;9.23;5.75;;;8.20;99.90;;;;;;5077484;28;20471;-76
2023/05/01 01:49:10;;;;;;;10.27;5.78;;;8.20;99.90;;;;;;5076848;28;20429;-77
2023/05/01 01:51:38;;;;;;;8.35;5.75;;;8.10;99.90;;;;;;5075375;28;20414;-78
2023/05/01 01:54:05;;;;;;;9.45;5.93;;;8.10;99.90;;;;;;5064018;28;20464;-75
2023/05/01 01:56:33;;;;;;;12.20;5.43;;;8.20;99.90;;;;;;5079377;28;20833;-77
2023/05/01 01:59:01;;;;;;;10.80;5.68;;;8.00;99.90;;;;;;5087231;28;20889;-79
2023/05/01 02:01:28;;;;;;;12.85;6.22;;;8.10;99.90;;;;;;5077103;28;20466;-78
2023/05/01 02:03:54;;;;;;;10.38;6.30;;;8.10;99.90;;;;;;5075685;28;20416;-78
2023/05/01 02:06:23;;;;;;;9.25;5.57;;;8.10;99.90;;;;;;5066491;28;20464;-77
2023/05/01 02:08:52;;;;;;;7.82;5.18;;;8.00;99.90;;;;;;5056586;28;20490;-76
2023/05/01 02:11:20;;;;;;;10.27;5.93;;;8.00;99.90;;;;;;5085918;28;20536;-77
2023/05/01 02:13:48;;;;;;;10.85;5.78;;;8.00;99.90;;;;;;5078253;28;20400;-77
2023/05/01 02:16:15;;;;;;;9.43;6.23;;;8.00;99.90;;;;;;5068525;28;20933;-76
2023/05/01 02:18:41;;;;;;;7.90;5.22;;;8.00;99.90;;;;;;5053210;28;20509;-79
2023/05/01 02:21:09;;;;;;;9.27;5.23;;;8.00;99.90;;;;;;5080843;28;20421;-77
2023/05/01 02:23:36;;;;;;;9.55;5.68;;;8.00;99.90;;;;;;5085656;28;20421;-76
2023/05/01 02:26:04;;;;;;;9.80;5.45;;;7.90;99.90;;;;;;5069154;28;20422;-77
2023/05/01 02:28:31;;;;;;;8.48;5.60;;;8.00;99.90;;;;;;5070864;28;20423;-77
2023/05/01 02:30:57;;;;;;;8.55;5.38;;;7.90;99.90;;;;;;5071960;28;20418;-76
2023/05/01 02:33:23;;;;;;;6.07;5.20;;;8.10;99.90;;;;;;5064184;28;20425;-76
2023/05/01 02:35:49;;;;;;;12.10;5.97;;;8.00;99.90;;;;;;5075687;28;20423;-75
2023/05/01 02:38:15;;;;;;;9.10;4.88;;;8.00;99.90;;;;;;5072177;28;20443;-77
2023/05/01 02:40:49;;;;;;;7.82;5.25;;;8.10;99.90;;;;;;5084669;28;20464;-75
2023/05/01 02:43:18;;;;;;;11.75;5.45;;;8.10;99.90;;;;;;5064669;28;21052;-78
2023/05/01 02:45:46;;;;;;;8.13;5.10;;;8.10;99.90;;;;;;5067392;28;20419;-81
2023/05/01 02:48:16;;;;;;;8.65;5.10;;;8.10;99.90;;;;;;5064797;28;20516;-76
2023/05/01 02:50:44;;;;;;;7.95;5.30;;;8.00;99.90;;;;;;5082637;28;20419;-76
2023/05/01 02:53:12;;;;;;;9.40;5.35;;;8.00;99.90;;;;;;5087912;28;20539;-76
2023/05/01 02:55:38;;;;;;;11.52;6.97;;;8.00;99.90;;;;;;5084745;28;20422;-76
2023/05/01 02:58:04;;;;;;;8.00;5.82;;;8.00;99.90;;;;;;5075717;28;20795;-77
2023/05/01 03:00:29;;;;;;;7.77;5.13;;;7.90;99.90;;;;;;5067740;28;20423;-75
2023/05/01 03:02:55;;;;;;;7.00;4.67;;;7.90;99.90;;;;;;5085772;28;20482;-74
2023/05/01 03:05:21;;;;;;;9.47;6.33;;;7.80;99.90;;;;;;5053981;28;20421;-77
2023/05/01 03:07:47;;;;;;;7.93;5.18;;;7.60;99.90;;;;;;5067136;28;20950;-78
2023/05/01 03:10:13;;;;;;;10.25;5.47;;;7.60;99.90;;;;;;5069996;28;20420;-76
2023/05/01 03:12:39;;;;;;;9.63;5.78;;;7.70;99.90;;;;;;5084299;28;20425;-76
2023/05/01 03:15:05;;;;;;;8.52;5.88;;;7.60;99.90;;;;;;5073247;28;20519;-77
2023/05/01 03:17:31;;;;;;;8.20;6.03;;;7.60;99.90;;;;;;5072804;28;20926;-75
2023/05/01 03:19:56;;;;;;;7.77;5.50;;;7.60;99.90;;;;;;5070080;28;20435;-76
2023/05/01 03:22:22;;;;;;;10.53;5.73;;;7.50;99.90;;;;;;5080453;28;20430;-78
2023/05/01 03:24:49;;;;;;;9.57;5.73;;;7.60;99.90;;;;;;5071470;28;20518;-77
2023/05/01 03:27:15;;;;;;;13.05;6.28;;;7.50;99.90;;;;;;5079928;28;20435;-76
2023/05/01 03:29:40;;;;;;;8.85;5.60;;;7.50;99.90;;;;;;5083392;28;20438;-78
2023/05/01 03:32:06;;;;;;;7.03;5.18;;;7.50;99.90;;;;;;5077375;28;20503;-77
2023/05/01 03:34:33;;;;;;;10.40;4.97;;;7.60;99.90;;;;;;5091730;28;20418;-76
2023/05/01 03:36:58;;;;;;;9.57;5.13;;;7.60;99.90;;;;;;5073087;28;20419;-77
2023/05/01 03:39:24;;;;;;;6.67;5.80;;;7.50;99.90;;;;;;5066133;28;20801;-78
2023/05/01 03:41:50;;;;;;;7.87;5.73;;;7.30;99.90;;;;;;5075620;28;20817;-76
2023/05/01 03:44:15;;;;;;;7.90;5.93;;;7.30;99.90;;;;;;5063286;28;20496;-76
2023/05/01 03:46:41;;;;;;;7.88;5.57;;;7.30;99.90;;;;;;5066671;28;20846;-78
2023/05/01 03:49:06;;;;;;;9.10;5.47;;;7.30;99.90;;;;;;5075112;28;20410;-76
2023/05/01 03:51:32;;;;;;;11.48;6.25;;;7.30;99.90;;;;;;5057225;28;20417;-76
2023/05/01 03:53:58;;;;;;;10.88;6.15;;;7.50;99.90;;;;;;5069100;28;20506;-78
2023/05/01 03:56:25;;;;;;;7.20;5.40;;;7.50;99.90;;;;;;5069243;28;20427;-77
2023/05/01 03:58:53;;;;;;;9.18;6.03;;;7.50;99.90;;;;;;5088166;28;20458;-77
2023/05/01 04:01:19;;;;;;;8.57;5.70;;;7.50;99.90;;;;;;5079141;28;20422;-78
2023/05/01 04:03:45;;;;;;;9.30;5.95;;;7.40;99.90;;;;;;5072115;28;20431;-78
2023/05/01 04:06:16;;;;;;;9.43;6.03;;;7.50;99.90;;;;;;5082039;28;20783;-76
2023/05/01 04:08:41;;;;;;;8.60;5.72;;;7.40;99.90;;;;;;5068461;28;20433;-77
2023/05/01 04:11:07;;;;;;;6.43;5.32;;;7.20;99.90;;;;;;5069390;28;20408;-76
2023/05/01 04:13:33;;;;;;;8.80;5.78;;;7.10;99.90;;;;;;5070127;28;20423;-78
2023/05/01 04:15:58;;;;;;;7.40;6.15;;;6.90;99.90;;;;;;5072248;28;20418;-78
2023/05/01 04:18:24;;;;;;;11.55;6.53;;;6.70;99.90;;;;;;5086963;28;20545;-76
2023/05/01 04:20:51;;;;;;;8.13;6.50;;;6.80;99.90;;;;;;5073895;28;20422;-76
2023/05/01 04:23:16;;;;;;;9.60;6.55;;;7.10;99.90;;;;;;5080619;28;20424;-76
2023/05/01 04:25:42;;;;;;;8.43;6.75;;;7.00;99.90;;;;;;5065984;28;20475;-77
2023/05/01 04:28:11;;;;;;;7.70;6.10;;;7.20;99.90;;;;;;5077536;28;20464;-76
2023/05/01 04:30:37;;;;;;;9.88;6.30;;;7.00;99.90;;;;;;5068910;28;20415;-77
2023/05/01 04:33:09;;;;;;;7.88;6.25;;;7.10;99.90;;;;;;5073892;28;20450;-76
2023/05/01 04:35:35;;;;;;;8.15;6.22;;;7.20;99.90;;;;;;5076232;28;20918;-77
2023/05/01 04:38:01;;;;;;;10.57;6.47;;;7.40;99.90;;;;;;5067385;28;20434;-78
2023/05/01 04:40:27;;;;;;;7.70;6.20;;;7.40;99.90;;;;;;5065397;28;20415;-76
2023/05/01 04:42:52;;;;;;;10.70;6.57;;;7.50;99.90;;;;;;5072831;28;20770;-77
2023/05/01 04:45:18;;;;;;;8.97;6.60;;;7.80;99.90;;;;;;5079198;28;21057;-75
2023/05/01 04:47:44;;;;;;;6.55;5.72;;;8.00;99.90;;;;;;5078490;28;20424;-75
2023/05/01 04:50:10;;;;;;;9.18;5.75;;;7.80;99.90;;;;;;5085468;28;20426;-77
2023/05/01 04:52:36;;;;;;;10.80;6.18;;;7.90;99.90;;;;;;5075566;28;20486;-75
2023/05/01 04:55:02;;;;;;;11.13;5.90;;;8.60;99.90;;;;;;5069143;28;20813;-76
2023/05/01 04:57:28;;;;;;;6.90;5.53;;;9.50;99.90;;;;;;5065838;28;20469;-76
2023/05/01 04:59:54;;;;;;;9.77;5.70;;;9.10;99.90;;;;;;5072418;28;20425;-74
2023/05/01 05:02:19;;;;;;;10.93;5.53;;;8.70;99.90;;;;;;5072934;28;20506;-74
2023/05/01 05:04:45;;;;;;;6.90;5.30;;;9.00;99.90;;;;;;5072200;28;20481;-75
2023/05/01 05:07:11;;;;;;;7.27;5.53;;;8.80;99.90;;;;;;5063244;28;21250;-75
2023/05/01 05:09:37;;;;;;;13.25;6.50;;;8.70;99.90;;;;;;5079548;28;20486;-75
2023/05/01 05:12:03;;;;;;;13.15;6.90;;;8.80;99.90;;;;;;5077962;28;20509;-74
2023/05/01 05:14:29;;;;;;;9.38;5.97;;;8.50;99.90;;;;;;5065968;28;20447;-75
2023/05/01 05:16:55;;;;;;;9.70;6.70;;;8.30;99.90;;;;;;5063259;28;20869;-74
2023/05/01 05:19:21;;;;;;;7.23;5.67;;;8.30;99.90;;;;;;5066472;28;20415;-75
2023/05/01 05:21:46;;;;;;;10.10;6.00;;;8.30;99.90;;;;;;5058168;28;20421;-75
2023/05/01 05:24:13;;;;;;;10.10;6.23;;;8.20;99.90;;;;;;5046715;28;21193;-75
2023/05/01 05:26:38;;;;;;;10.70;6.50;;;8.30;99.90;;;;;;5067531;28;20407;-74
2023/05/01 05:29:04;;;;;;;9.45;6.47;;;8.20;99.90;;;;;;5075350;28;20929;-75
2023/05/01 05:31:30;;;;;;;13.40;7.03;;;8.30;99.90;;;;;;5073846;28;20456;-75
2023/05/01 05:33:56;;;;;;;9.13;6.17;;;8.40;99.90;;;;;;5071044;28;20419;-74
2023/05/01 05:36:21;;;;;;;13.20;7.07;;;8.30;99.90;;;;;;5067847;28;20411;-74
2023/05/01 05:38:47;;;;;;;11.27;6.67;;;8.40;99.90;;;;;;5067740;28;21772;-75
2023/05/01 05:41:13;;;;;;;13.52;7.55;;;8.40;99.90;;;;;;5071266;28;20449;-74
2023/05/01 05:43:39;;;;;;;9.77;7.03;;;8.60;99.90;;;;;;5066541;28;20438;-76
2023/05/01 05:46:04;;;;;;;9.63;6.55;;;8.70;99.90;;;;;;5065880;28;20418;-75
2023/05/01 05:48:30;;;;;;;7.82;6.57;;;8.70;99.90;;;;;;5070012;28;20845;-74
2023/05/01 05:50:56;;;;;;;11.32;7.00;;;8.80;99.90;;;;;;5086031;28;20406;-74
2023/05/01 05:53:22;;;;;;;10.07;7.28;;;8.80;99.90;;;;;;5077725;28;20419;-75
2023/05/01 05:55:48;;;;;;;10.35;6.88;;;8.90;99.90;;;;;;5086867;28;20410;-74
2023/05/01 05:58:18;;;;;;;11.07;7.47;;;8.90;99.90;;;;;;5085805;28;20466;-75
2023/05/01 06:00:48;;;;;;;8.38;6.47;;;9.10;99.90;;;;;;5079154;28;20425;-75
2023/05/01 06:03:15;;;;;;;9.30;6.22;;;9.40;99.90;;;;;;5047792;28;20828;-75
2023/05/01 06:05:42;;;;;;;9.23;5.97;;;9.20;99.90;;;;;;5067597;28;20465;-73
2023/05/01 06:08:09;;;;;;;10.73;6.38;;;9.60;99.90;;;;;;5080074;28;20499;-75
2023/05/01 06:10:36;;;;;;;11.70;7.05;;;9.50;99.90;;;;;;5068593;28;20494;-73
2023/05/01 06:13:02;;;;;;;11.40;6.82;;;9.50;99.90;;;;;;5067693;28;20416;-74
2023/05/01 06:15:28;;;;;;;11.40;6.65;;;9.80;99.90;;;;;;5066889;28;20515;-75
2023/05/01 06:17:54;;;;;;;9.88;6.78;;;9.90;99.90;;;;;;5067387;28;20423;-75
2023/05/01 06:20:19;;;;;;;8.53;6.50;;;10.00;99.90;;;;;;5079342;28;21018;-74
2023/05/01 06:22:45;;;;;;;8.60;6.03;;;10.10;99.90;;;;;;5082913;28;20511;-75
2023/05/01 06:25:11;;;;;;;9.90;6.07;;;10.40;99.90;;;;;;5064669;28;20423;-74
2023/05/01 06:27:37;;;;;;;11.38;6.40;;;10.40;99.90;;;;;;5075862;28;20873;-74
2023/05/01 06:30:07;;;;;;;7.55;5.78;;;10.60;99.90;;;;;;5064240;28;20839;-74
2023/05/01 06:32:33;;;;;;;10.93;6.65;;;10.60;99.90;;;;;;5066309;28;20486;-75
2023/05/01 06:34:58;;;;;;;9.75;5.90;;;10.40;99.90;;;;;;5076400;28;20411;-74
2023/05/01 06:37:24;;;;;;;9.00;5.80;;;10.30;99.90;;;;;;5062301;28;20486;-74
2023/05/01 06:39:50;;;;;;;10.38;6.88;;;10.70;99.90;;;;;;5082949;28;20430;-74
2023/05/01 06:42:15;;;;;;;8.37;5.67;;;10.70;99.90;;;;;;5090164;28;20406;-73
2023/05/01 06:44:42;;;;;;;10.87;6.77;;;10.80;99.90;;;;;;5077988;28;20776;-73
2023/05/01 06:47:07;;;;;;;11.30;5.72;;;11.00;99.90;;;;;;5080031;28;20431;-74
2023/05/01 06:49:33;;;;;;;10.90;6.07;;;11.00;99.90;;;;;;5070247;28;20430;-75
2023/05/01 06:51:59;;;;;;;13.27;7.32;;;11.30;99.90;;;;;;5077634;28;20430;-76
2023/05/01 06:54:25;;;;;;;12.40;5.97;;;11.80;99.90;;;;;;5071779;28;20412;-75
2023/05/01 06:56:52;;;;;;;11.38;5.45;;;12.10;99.90;;;;;;5085125;28;20716;-74
2023/05/01 06:59:18;;;;;;;8.57;5.80;;;12.40;99.90;;;;;;5076153;28;20423;-75
2023/05/01 07:01:43;;;;;;;11.38;6.45;;;12.90;99.90;;;;;;5070226;28;20419;-75
2023/05/01 07:04:09;;;;;;;8.82;5.40;;;13.50;99.90;;;;;;5048313;28;20420;-75
2023/05/01 07:06:36;;;;;;;10.63;5.13;;;13.70;99.90;;;;;;5070680;28;20955;-79
2023/05/01 07:09:02;;;;;;;7.68;5.20;;;14.50;99.90;;;;;;5088941;28;20498;-79
2023/05/01 07:11:28;;;;;;;9.50;5.28;;;14.30;99.90;;;;;;5052658;28;20471;-79
2023/05/01 07:13:54;;;;;;;8.97;5.90;;;14.40;99.90;;;;;;5061148;28;20455;-79
2023/05/01 07:16:20;;;;;;;11.43;5.90;;;15.30;99.90;;;;;;5066490;28;20427;-77
2023/05/01 07:18:46;;;;;;;9.80;5.17;;;15.90;99.90;;;;;;5071380;28;20511;-80
2023/05/01 07:21:11;;;;;;;10.97;6.07;;;15.30;99.90;;;;;;5070245;28;20432;-78
2023/05/01 07:23:38;;;;;;;11.40;5.57;;;15.10;99.90;;;;;;5069034;28;20476;-77
2023/05/01 07:26:04;;;;;;;8.80;5.10;;;13.60;99.90;;;;;;5068875;28;20411;-79
2023/05/01 07:28:30;;;;;;;9.18;6.32;;;13.80;99.90;;;;;;5068927;28;20426;-79
2023/05/01 07:30:55;;;;;;;8.30;5.63;;;13.60;99.90;;;;;;5069129;28;20805;-78
2023/05/01 07:33:23;;;;;;;8.20;5.72;;;13.80;99.90;;;;;;5067929;28;20460;-78
2023/05/01 07:35:49;;;;;;;7.22;5.13;;;13.60;99.90;;;;;;5065866;28;20421;-78
2023/05/01 07:38:16;;;;;;;6.95;5.18;;;13.10;99.90;;;;;;5069887;28;20512;-78
2023/05/01 07:40:42;;;;;;;10.48;6.82;;;13.70;99.90;;;;;;5069176;28;20408;-78
2023/05/01 07:43:10;;;;;;;9.05;5.68;;;13.70;99.90;;;;;;5068679;28;21172;-79
2023/05/01 07:45:39;;;;;;;6.95;4.10;;;14.20;99.90;;;;;;5067608;28;20907;-78
2023/05/01 07:48:05;;;;;;;7.40;5.00;;;14.20;99.90;;;;;;5087705;28;20462;-79
2023/05/01 07:50:30;;;;;;;9.32;5.20;;;14.30;99.90;;;;;;5070970;28;20461;-78
2023/05/01 07:52:56;;;;;;;8.07;5.10;;;14.60;99.90;;;;;;5068957;28;20416;-78
2023/05/01 07:55:22;;;;;;;8.07;4.35;;;14.80;99.90;;;;;;5068133;28;20391;-78
2023/05/01 07:57:49;;;;;;;7.00;4.50;;;14.80;99.90;;;;;;5068543;28;20425;-78
2023/05/01 08:00:15;;;;;;;7.80;4.38;;;14.90;99.90;;;;;;5088484;28;20949;-78
2023/05/01 08:02:41;;;;;;;8.82;4.10;;;14.70;99.90;;;;;;5085462;28;21142;-78
2023/05/01 08:05:07;;;;;;;6.65;4.22;;;15.20;99.90;;;;;;5070839;28;20423;-77
2023/05/01 08:07:33;;;;;;;6.50;4.10;;;15.20;99.90;;;;;;5067226;28;20412;-78
2023/05/01 08:10:01;;;;;;;8.07;4.43;;;15.30;99.90;;;;;;5066742;28;20419;-77
2023/05/01 08:12:28;;;;;;;7.45;4.38;;;15.40;99.90;;;;;;5068464;28;20436;-78
2023/05/01 08:14:53;;;;;;;5.93;3.28;;;15.30;99.90;;;;;;5069248;28;20732;-79
2023/05/01 08:17:19;;;;;;;8.32;4.05;;;15.40;99.90;;;;;;5066824;28;20442;-78
2023/05/01 08:19:45;;;;;;;7.85;4.07;;;15.40;99.90;;;;;;5068265;28;20420;-77
2023/05/01 08:22:11;;;;;;;6.43;4.30;;;15.50;99.90;;;;;;5067711;28;20412;-76
2023/05/01 08:24:37;;;;;;;10.30;4.37;;;15.70;99.90;;;;;;5077006;28;20783;-77
2023/05/01 08:27:04;;;;;;;13.00;5.25;;;15.90;99.90;;;;;;5068419;28;20435;-77
2023/05/01 08:29:30;;;;;;;8.85;5.82;;;15.20;99.90;;;;;;5068853;28;20411;-78
2023/05/01 08:31:57;;;;;;;9.30;4.90;;;15.50;99.90;;;;;;5066835;28;20922;-77
2023/05/01 08:34:23;;;;;;;6.55;4.35;;;15.80;99.90;;;;;;5065350;28;20465;-75
2023/05/01 08:36:48;;;;;;;9.18;4.38;;;15.60;99.90;;;;;;5066663;28;20424;-78
2023/05/01 08:39:14;;;;;;;7.72;4.22;;;15.50;99.90;;;;;;5067674;28;20462;-77
2023/05/01 08:41:43;;;;;;;8.40;4.00;;;15.20;99.90;;;;;;5068704;28;20407;-77
2023/05/01 08:44:10;;;;;;;8.38;5.00;;;15.80;99.90;;;;;;5084649;28;20414;-77
2023/05/01 08:47:06;;;;;;;8.00;4.30;;;16.20;99.90;;;;;;5065917;28;20446;-77
2023/05/01 08:49:34;;;;;;;5.13;3.20;;;15.70;99.90;;;;;;5067549;28;20419;-78
2023/05/01 08:52:01;;;;;;;6.32;3.08;;;16.30;99.90;;;;;;5067920;28;20404;-78
2023/05/01 08:54:29;;;;;;;9.50;3.40;;;16.20;99.90;;;;;;5070497;28;20531;-77
2023/05/01 08:57:03;;;;;;;7.03;3.10;;;16.00;99.90;;;;;;5070028;28;20481;-77
2023/05/01 08:59:34;;;;;;;7.93;3.10;;;16.40;99.90;;;;;;5074061;28;20451;-78
2023/05/01 09:02:03;;;;;;;7.38;3.50;;;16.30;99.90;;;;;;5055341;28;20431;-77
2023/05/01 09:04:34;;;;;;;5.40;2.83;;;16.40;99.90;;;;;;5066924;28;20423;-78
2023/05/01 09:07:01;;;;;;;5.38;3.10;;;16.40;99.90;;;;;;5067744;28;20404;-78
2023/05/01 09:09:31;;;;;;;7.57;3.55;;;16.40;99.90;;;;;;5067186;28;20427;-77
2023/05/01 09:12:04;;;;;;;10.03;4.17;;;16.80;99.90;;;;;;5067645;28;20517;-77
2023/05/01 09:14:31;;;;;;;10.40;4.75;;;16.70;99.90;;;;;;5067571;28;20491;-77
2023/05/01 09:16:57;;;;;;;6.40;3.50;;;16.60;99.90;;;;;;5065008;28;20427;-77
2023/05/01 09:19:25;;;;;;;6.10;2.97;;;16.70;99.90;;;;;;5076232;28;20417;-77
2023/05/01 09:21:52;;;;;;;7.00;2.72;;;16.80;99.90;;;;;;5094348;28;20425;-76
2023/05/01 09:24:17;;;;;;;6.68;3.50;;;16.50;99.90;;;;;;5090306;28;20414;-77
2023/05/01 09:26:43;;;;;;;4.38;1.73;;;16.40;99.90;;;;;;5089293;28;20928;-77
2023/05/01 09:29:09;;;;;;;4.20;2.00;;;16.90;99.90;;;;;;5086789;28;20479;-77
2023/05/01 09:31:35;;;;;;;4.88;2.53;;;16.90;99.90;;;;;;5065086;28;20425;-77
2023/05/01 09:34:03;;;;;;;5.20;2.40;;;17.20;99.90;;;;;;5067097;28;20404;-78
2023/05/01 09:36:39;;;;;;;5.47;2.40;;;17.30;99.90;;;;;;5067418;28;20435;-77
2023/05/01 09:39:05;;;;;;;3.92;2.03;;;17.40;99.90;;;;;;5067864;28;20481;-78
2023/05/01 09:41:31;;;;;;;5.55;2.38;;;17.20;99.90;;;;;;5086571;28;20932;-77
2023/05/01 09:43:58;;;;;;;5.40;2.33;;;17.10;99.90;;;;;;5086451;28;20406;-77
2023/05/01 09:46:25;;;;;;;4.05;1.85;;;17.50;99.90;;;;;;5069855;28;20423;-78
2023/05/01 09:49:02;;;;;;;4.78;1.73;;;17.70;99.90;;;;;;5067150;28;20454;-78
2023/05/01 09:51:32;;;;;;;7.22;2.15;;;17.20;99.90;;;;;;5069219;28;20445;-78
2023/05/01 09:53:59;;;;;;;5.72;2.00;;;17.60;99.90;;;;;;5068560;28;20412;-77
2023/05/01 09:56:26;;;;;;;5.53;2.00;;;17.50;99.90;;;;;;5069476;28;20485;-76
2023/05/01 09:58:53;;;;;;;4.63;2.25;;;17.60;99.90;;;;;;5068777;28;20482;-77
2023/05/01 10:01:45;;;;;;;4.22;2.00;;;17.70;99.90;;;;;;5049357;28;20408;-77
2023/05/01 10:04:12;;;;;;;4.43;2.03;;;17.70;99.90;;;;;;5050056;28;20420;-78
2023/05/01 10:06:38;;;;;;;7.33;2.43;;;17.70;99.90;;;;;;5049214;28;20455;-79
2023/05/01 10:09:16;;;;;;;5.60;2.22;;;17.40;99.90;;;;;;5049643;28;20417;-79
2023/05/01 10:11:53;;;;;;;4.18;1.80;;;17.60;99.90;;;;;;5067247;28;20498;-77
2023/05/01 10:14:19;;;;;;;2.75;1.38;;;17.90;99.90;;;;;;5066058;28;20420;-77
2023/05/01 10:16:45;;;;;;;4.50;2.45;;;17.80;99.90;;;;;;5082934;28;20469;-78
2023/05/01 10:19:12;;;;;;;7.00;1.90;;;17.80;99.90;;;;;;5083110;28;20493;-77
2023/05/01 10:21:37;;;;;;;3.05;2.00;;;17.70;99.90;;;;;;5085328;28;20405;-76
2023/05/01 10:24:04;;;;;;;4.13;1.63;;;17.30;99.90;;;;;;5086405;28;20413;-77
2023/05/01 10:26:33;;;;;;;4.35;1.73;;;17.50;99.90;;;;;;5082958;28;20497;-78
2023/05/01 10:29:00;;;;;;;3.75;1.70;;;17.90;99.90;;;;;;5065495;28;20411;-78
2023/05/01 10:31:26;;;;;;;4.60;1.75;;;17.80;99.90;;;;;;5064596;28;20481;-78
2023/05/01 10:33:54;;;;;;;4.45;2.20;;;17.80;99.90;;;;;;5063836;28;20419;-77
2023/05/01 10:36:33;;;;;;;3.53;1.80;;;18.00;99.90;;;;;;5074016;28;20425;-77
2023/05/01 10:38:59;;;;;;;4.28;1.75;;;17.80;99.90;;;;;;5083697;28;20429;-77
2023/05/01 10:41:57;;;;;;;6.75;2.05;;;17.90;99.90;;;;;;5079742;28;20440;-77
2023/05/01 10:44:23;;;;;;;2.13;1.35;;;17.80;99.90;;;;;;5082892;28;20422;-76
2023/05/01 10:46:49;;;;;;;4.37;1.30;;;18.00;99.90;;;;;;5057413;28;20796;-77
2023/05/01 10:49:16;;;;;;;4.97;1.83;;;18.00;99.90;;;;;;5065702;28;20421;-76
2023/05/01 10:51:57;;;;;;;2.53;1.52;;;18.00;99.90;;;;;;5067453;28;20994;-78
2023/05/01 10:54:26;;;;;;;3.10;2.00;;;18.10;99.90;;;;;;5065973;28;20419;-78
2023/05/01 10:56:57;;;;;;;4.20;2.50;;;18.00;99.90;;;;;;5084260;28;20421;-78
2023/05/01 10:59:23;;;;;;;4.83;2.20;;;18.10;99.90;;;;;;5075807;28;20494;-77
2023/05/01 11:01:51;;;;;;;4.68;2.63;;;18.30;99.90;;;;;;5063213;28;20772;-76
2023/05/01 11:04:20;;;;;;;4.80;2.30;;;18.40;99.90;;;;;;5068630;28;20426;-77
2023/05/01 11:07:04;;;;;;;8.40;2.90;;;18.40;99.90;;;;;;5084739;28;20745;-76
2023/05/01 11:09:53;;;;;;;3.22;1.55;;;18.30;99.90;;;;;;5054330;28;20483;-76
2023/05/01 11:12:44;;;;;;;6.15;2.22;;;18.80;99.90;;;;;;5044152;28;20497;-76
2023/05/01 11:15:10;;;;;;;5.10;2.43;;;18.70;99.90;;;;;;5065159;28;20532;-76
2023/05/01 11:17:38;;;;;;;5.83;1.60;;;18.70;99.90;;;;;;5055076;28;20515;-75
2023/05/01 11:20:25;;;;;;;4.72;1.35;;;18.60;99.90;;;;;;5069157;28;20423;-77
2023/05/01 11:22:52;;;;;;;4.18;1.80;;;18.40;99.90;;;;;;5071632;28;20447;-77
2023/05/01 11:25:24;;;;;;;4.28;1.60;;;18.40;99.90;;;;;;5079536;28;20440;-78
2023/05/01 11:27:55;;;;;;;4.35;1.67;;;18.00;99.90;;;;;;5083555;28;20433;-78
2023/05/01 11:30:20;;;;;;;3.80;1.80;;;18.00;99.90;;;;;;5085531;28;20428;-78
2023/05/01 11:32:48;;;;;;;3.90;1.60;;;18.50;99.90;;;;;;5067994;28;20423;-78
2023/05/01 11:35:19;;;;;;;3.75;1.20;;;18.50;99.90;;;;;;5067680;28;20522;-78
2023/05/01 11:37:45;;;;;;;1.95;0.63;;;18.30;99.90;;;;;;5067929;28;20428;-78
2023/05/01 11:40:23;;;;;;;2.42;0.77;;;18.40;99.90;;;;;;5067665;28;20741;-78
2023/05/01 11:42:50;;;;;;;2.22;0.80;;;18.40;99.90;;;;;;5067980;28;20407;-78
2023/05/01 11:45:19;;;;;;;3.57;1.50;;;18.60;99.90;;;;;;5068632;28;20404;-77
2023/05/01 11:47:45;;;;;;;4.32;1.40;;;18.60;99.90;;;;;;5067833;28;20877;-78
2023/05/01 11:50:11;;;;;;;5.28;1.73;;;18.50;99.90;;;;;;5079082;28;20503;-78
2023/05/01 11:52:45;;;;;;;3.90;1.60;;;18.30;99.90;;;;;;5089603;28;20448;-78
2023/05/01 11:55:11;;;;;;;2.97;1.80;;;18.50;99.90;;;;;;5089129;28;20406;-78
2023/05/01 11:57:52;;;;;;;3.57;2.03;;;18.60;99.90;;;;;;5089133;28;20747;-79
2023/05/01 12:00:36;;;;;;;3.97;1.87;;;18.10;99.90;;;;;;5075504;28;20423;-78
2023/05/01 12:03:05;;;;;;;3.88;2.17;;;18.40;99.90;;;;;;5068764;28;20423;-77
2023/05/01 12:05:31;;;;;;;7.28;2.00;;;18.50;99.90;;;;;;5067510;28;21009;-77
2023/05/01 12:08:22;;;;;;;3.25;1.90;;;18.50;99.90;;;;;;5069268;28;20403;-77
2023/05/01 12:10:54;;;;;;;5.43;1.98;;;18.30;99.90;;;;;;5068513;28;20818;-77
2023/05/01 12:13:20;;;;;;;4.07;1.80;;;18.50;99.90;;;;;;5068105;28;20430;-80
2023/05/01 12:15:51;;;;;;;3.85;1.98;;;18.70;99.90;;;;;;5068062;28;20473;-78
2023/05/01 12:18:17;;;;;;;2.88;1.88;;;18.70;99.90;;;;;;5068144;28;20419;-80
2023/05/01 12:20:49;;;;;;;4.35;1.63;;;18.70;99.90;;;;;;5068199;28;20930;-79
2023/05/01 12:23:15;;;;;;;2.58;2.10;;;18.70;99.90;;;;;;5068736;28;20775;-79
2023/05/01 12:25:42;;;;;;;4.50;1.60;;;18.30;99.90;;;;;;5068678;28;20457;-78
2023/05/01 12:28:10;;;;;;;3.28;1.50;;;18.20;99.90;;;;;;5048805;28;20781;-78
2023/05/01 12:30:36;;;;;;;3.08;1.40;;;18.30;99.90;;;;;;5060940;28;20412;-78
2023/05/01 12:33:10;;;;;;;2.65;1.58;;;18.30;99.90;;;;;;5068096;28;20404;-78
2023/05/01 12:35:37;;;;;;;3.93;1.73;;;18.10;99.90;;;;;;5069639;28;20411;-78
2023/05/01 12:38:14;;;;;;;4.55;1.60;;;18.10;99.90;;;;;;5070495;28;20427;-78
2023/05/01 12:40:55;;;;;;;4.05;1.45;;;18.20;99.90;;;;;;5078568;28;20473;-78
2023/05/01 12:43:31;;;;;;;5.05;1.67;;;18.30;99.90;;;;;;5069621;28;20403;-78
2023/05/01 12:45:58;;;;;;;5.78;2.92;;;18.30;99.90;;;;;;5069143;28;20396;-76
2023/05/01 12:48:24;;;;;;;8.43;3.20;;;17.90;99.90;;;;;;5067736;28;20481;-78
2023/05/01 12:50:53;;;;;;;7.32;3.40;;;17.60;99.90;;;;;;5081505;28;20422;-79
2023/05/01 12:53:23;;;;;;;7.32;2.90;;;17.50;99.90;;;;;;5087488;28;20988;-78
2023/05/01 12:55:52;;;;;;;6.77;3.20;;;17.70;99.90;;;;;;5078032;28;20419;-79